CheckWX is a tool to help pilots better visualize weather data.  It is not intended as a substitute for an official pre-flight weather briefing.

01:05:43 UTC

KEDN METAR
Enterprise Municipal Airport
Enterprise, Alabama, USA
Current

31 mins ago

KEDN 200035Z AUTO 00000KT 10SM -DZ SCT050 SCT065 25/25 A3005 RMK AO2 P0001 T02470247
Observed
Aug-20 @ 00:35 UTC
Visibility
10 SM
Flight Rules
VFR
Conditions
Light Drizzle
Cloud Levels
  • Scattered at 5,000' AGL
  • Scattered at 6,500' AGL
Temperature
25°C / 77°F
Dewpoint
25°C / 77°F
Humidity
100%
Altimeter
30.05" Hg
Pressure
1017.62 hPa
Current Rain
0.01"
Previous

51 mins ago

KEDN 200015Z AUTO 00000KT 10SM DZ SCT017 SCT036 BKN055 25/25 A3005 RMK AO2 LTG DSNT E T02460246
Observed
Aug-20 @ 00:15 UTC
Visibility
10 SM
Flight Rules
VFR
Conditions
Drizzle
Cloud Levels
  • Scattered at 1,700' AGL
  • Scattered at 3,600' AGL
  • Broken at 5,500' AGL
Temperature
25°C / 77°F
Dewpoint
25°C / 77°F
Humidity
100%
Altimeter
30.05" Hg
Pressure
1017.62 hPa
Previous

1 hour ago

KEDN 192355Z AUTO 00000KT 10SM -RA BKN015 BKN065 OVC085 25/25 A3004 RMK AO2 LTG DSNT S P0001 60002 T02480248 10326 20243
Observed
Aug-19 @ 23:55 UTC
Visibility
10 SM
Flight Rules
MVFR
Conditions
Light Rain
Cloud Levels
  • Broken at 1,500' AGL
  • Broken at 6,500' AGL
  • Overcast at 8,500' AGL
Temperature
25°C / 77°F
Dewpoint
25°C / 77°F
Humidity
100%
Altimeter
30.04" Hg
Pressure
1017.32 hPa
Current Rain
0.01"